Yongchuan, China
Current Conditions -  °F | °C
As of 5:00 PM on Tuesday 21 Oct 2014 (Local Time) from ZUCK Reporting Station
Few Clouds Few Clouds  
Wind Chill: 75°   Ceiling: Unl
Heat Index: 75°   Visibility: 6mi
Dew Point: 57°   Wind: 2mph
Humidity: 53%   Direction: NA
Pressure: 30.15"   Gusts: NA
Location:  29.37°N, 105.98°E
Report Text: ZUCK 210900Z VRB01MPS 9999 FEW040 24/14 Q1021 NOSIG
Loading
Personal Weather Stations






























Interactive Weather Map
Tropical Storm Tracking
New forecast layout! Learn more

10-Day Weather Forecast

Advertisements
Track Severe Weather on mobile